createdAt,value
2022-11-04T00:01:38.511Z,1005.00
2022-11-04T00:12:41.670Z,1005.00
2022-11-04T00:23:24.924Z,1005.00
2022-11-04T00:34:27.567Z,1005.00
2022-11-04T00:45:20.791Z,1005.00
2022-11-04T00:56:01.283Z,1005.00
2022-11-04T01:07:03.129Z,1005.00
2022-11-04T01:18:06.299Z,1005.00
2022-11-04T01:29:08.718Z,1005.00
2022-11-04T01:40:10.685Z,1003.95
2022-11-04T01:51:13.948Z,1003.95
2022-11-04T02:02:15.914Z,1003.95
2022-11-04T02:13:14.624Z,1003.95
2022-11-04T02:24:15.422Z,1002.90
2022-11-04T02:35:18.277Z,1002.90
2022-11-04T02:46:22.074Z,1002.90
2022-11-04T02:57:26.195Z,1002.90
2022-11-04T03:08:28.478Z,1002.90
2022-11-04T03:19:30.519Z,1002.90
2022-11-04T03:30:33.711Z,1002.90
2022-11-04T03:41:37.754Z,1002.90
2022-11-04T03:52:42.680Z,1002.90
2022-11-04T04:03:45.082Z,1002.90
2022-11-04T04:14:48.219Z,1002.90
2022-11-04T04:25:53.469Z,1002.90
2022-11-04T04:37:00.554Z,1002.90
2022-11-04T04:47:43.916Z,1002.90
2022-11-04T04:58:33.107Z,1001.86
2022-11-04T05:09:20.594Z,1002.90
2022-11-04T05:20:35.801Z,1001.86
2022-11-04T05:31:40.115Z,1001.86
2022-11-04T05:42:35.124Z,1001.86
2022-11-04T05:53:29.781Z,1001.86
2022-11-04T06:04:42.443Z,1001.86
2022-11-04T06:15:47.474Z,1001.86
2022-11-04T06:26:59.064Z,1001.86
2022-11-04T06:38:08.496Z,1001.86
2022-11-04T06:49:21.015Z,1001.86
2022-11-04T07:00:29.154Z,1001.86
2022-11-04T07:11:38.467Z,1001.86
2022-11-04T07:22:42.329Z,1001.86
2022-11-04T07:33:42.546Z,1001.86
2022-11-04T07:44:49.208Z,1001.86
2022-11-04T07:55:47.665Z,1001.86
2022-11-04T08:06:48.485Z,1000.81
2022-11-04T08:17:50.846Z,1000.81
2022-11-04T08:28:52.067Z,1000.81
2022-11-04T08:39:55.220Z,1000.81
2022-11-04T08:50:59.039Z,1000.81
2022-11-04T09:01:41.336Z,999.77
2022-11-04T09:12:43.187Z,999.77
2022-11-04T09:23:24.450Z,999.77
2022-11-04T09:34:25.838Z,999.77
2022-11-04T09:45:27.710Z,999.77
2022-11-04T09:56:28.486Z,999.77
2022-11-04T10:07:30.508Z,998.72
2022-11-04T10:18:31.596Z,998.72
2022-11-04T10:29:33.363Z,998.72
2022-11-04T10:40:34.743Z,998.72
2022-11-04T10:51:35.563Z,998.72
2022-11-04T11:02:36.736Z,997.68
2022-11-04T11:13:38.387Z,997.68
2022-11-04T11:24:41.114Z,997.68
2022-11-04T11:35:41.227Z,997.68
2022-11-04T11:46:44.474Z,997.68
2022-11-04T11:57:44.278Z,997.68
2022-11-04T12:19:51.179Z,997.68
2022-11-04T12:30:47.375Z,996.63
2022-11-04T12:42:06.784Z,996.63
2022-11-04T12:52:41.537Z,997.68
2022-11-04T13:03:29.922Z,997.68
2022-11-04T13:14:13.711Z,997.68
2022-11-04T13:24:54.973Z,997.68
2022-11-04T13:35:38.764Z,997.68
2022-11-04T13:46:47.467Z,998.72
2022-11-04T13:57:49.070Z,998.72
2022-11-04T14:08:49.876Z,998.72
2022-11-04T14:19:59.140Z,999.77
2022-11-04T14:31:12.541Z,999.77
2022-11-04T14:42:13.788Z,999.77
2022-11-04T14:53:12.962Z,998.72
2022-11-04T15:04:21.466Z,998.72
2022-11-04T15:15:30.623Z,998.72
2022-11-04T15:26:39.657Z,998.72
2022-11-04T15:37:48.709Z,999.77
2022-11-04T15:48:57.597Z,999.77
2022-11-04T16:00:05.777Z,999.77
2022-11-04T16:11:11.712Z,999.77
2022-11-04T16:22:17.972Z,1000.81
2022-11-04T16:33:21.364Z,1000.81
2022-11-04T16:44:21.133Z,1000.81
2022-11-04T16:55:24.643Z,1000.81
2022-11-04T17:06:24.648Z,1000.81
2022-11-04T17:17:33.910Z,1001.86
